Time;durP1;ratioP1;P1;durP2;ratioP2;P2;SDS_P1;SDS_P2;PMS_P1;PMS_P2;Temp;Humidity;BMP_temperature;BMP_pressure;BME280_temperature;BME280_humidity;BME280_pressure;Samples;Min_cycle;Max_cycle;Signal;HPM_P1;HPM_P2
2023/05/14 00:00:12;;;;;;;20.33;10.25;;;11.30;91.90;;;;;;5030132;28;20408;-69
2023/05/14 00:02:38;;;;;;;19.40;10.43;;;11.20;92.20;;;;;;5024194;28;20047;-68
2023/05/14 00:05:04;;;;;;;21.45;9.70;;;11.20;92.10;;;;;;5020030;28;20474;-69
2023/05/14 00:07:29;;;;;;;22.63;10.35;;;11.20;92.10;;;;;;5005975;28;20048;-69
2023/05/14 00:09:56;;;;;;;17.73;9.70;;;11.10;92.10;;;;;;5015517;28;20038;-69
2023/05/14 00:12:22;;;;;;;19.38;10.90;;;11.10;92.30;;;;;;5026590;28;20075;-69
2023/05/14 00:14:47;;;;;;;20.45;10.35;;;11.10;92.40;;;;;;5023459;28;20072;-69
2023/05/14 00:17:13;;;;;;;23.63;10.85;;;11.10;92.40;;;;;;5021760;28;20043;-69
2023/05/14 00:19:40;;;;;;;17.40;9.75;;;11.10;92.50;;;;;;5024669;28;20071;-69
2023/05/14 00:22:07;;;;;;;17.23;10.55;;;11.10;92.50;;;;;;5019966;28;20136;-69
2023/05/14 00:24:33;;;;;;;17.02;11.30;;;11.10;92.50;;;;;;5017112;28;20042;-69
2023/05/14 00:26:59;;;;;;;19.40;10.43;;;11.10;92.60;;;;;;5038026;28;20084;-69
2023/05/14 00:29:24;;;;;;;16.40;10.15;;;11.10;92.60;;;;;;5023002;28;20135;-69
2023/05/14 00:31:50;;;;;;;16.25;10.18;;;11.10;92.50;;;;;;5025589;28;20266;-69
2023/05/14 00:34:15;;;;;;;16.63;10.02;;;11.00;92.50;;;;;;5024017;28;20049;-69
2023/05/14 00:36:41;;;;;;;18.95;10.40;;;11.10;92.50;;;;;;5021151;28;20033;-69
2023/05/14 00:39:07;;;;;;;17.98;10.52;;;11.00;92.60;;;;;;5022261;28;20136;-69
2023/05/14 00:41:32;;;;;;;16.67;10.13;;;11.10;92.70;;;;;;5025503;28;20409;-68
2023/05/14 00:43:58;;;;;;;19.98;10.00;;;11.10;92.80;;;;;;5026325;28;20131;-68
2023/05/14 00:46:23;;;;;;;18.73;10.00;;;11.10;92.70;;;;;;5024281;28;20608;-69
2023/05/14 00:48:49;;;;;;;17.58;10.80;;;11.10;92.70;;;;;;5025670;28;20042;-69
2023/05/14 00:51:15;;;;;;;18.13;9.77;;;11.00;92.70;;;;;;5007803;28;20038;-69
2023/05/14 00:53:41;;;;;;;17.00;10.18;;;11.00;92.90;;;;;;5026526;28;20048;-69
2023/05/14 00:56:07;;;;;;;19.38;10.50;;;11.00;93.00;;;;;;5025221;28;20037;-69
2023/05/14 00:58:33;;;;;;;17.92;10.57;;;11.10;93.10;;;;;;5024741;28;20048;-69
2023/05/14 01:00:58;;;;;;;18.15;10.32;;;11.00;93.10;;;;;;5025915;28;20148;-69
2023/05/14 01:03:24;;;;;;;20.35;10.98;;;11.00;93.30;;;;;;5021073;28;20073;-69
2023/05/14 01:06:26;;;;;;;18.73;10.82;;;11.00;93.30;;;;;;5021825;28;20053;-69
2023/05/14 01:09:05;;;;;;;19.75;11.25;;;11.00;94.00;;;;;;5012163;28;20050;-69
2023/05/14 01:11:48;;;;;;;22.20;10.95;;;11.00;93.30;;;;;;5014671;28;20525;-69
2023/05/14 01:14:23;;;;;;;18.75;10.98;;;11.00;94.00;;;;;;5022187;28;20517;-69
2023/05/14 01:16:53;;;;;;;17.75;10.80;;;10.90;93.50;;;;;;5022277;28;20047;-69
2023/05/14 01:19:21;;;;;;;;;;;10.90;93.50;;;;;;5023475;28;20405;-69
2023/05/14 01:21:46;;;;;;;19.42;10.73;;;10.80;94.40;;;;;;5025378;28;19921;-68
2023/05/14 01:24:12;;;;;;;17.33;10.77;;;10.80;93.50;;;;;;5023169;28;20044;-69
2023/05/14 01:26:38;;;;;;;15.95;10.50;;;10.70;93.50;;;;;;5005378;28;20049;-69
2023/05/14 01:29:21;;;;;;;20.27;11.32;;;10.70;93.70;;;;;;5022601;28;20083;-69
2023/05/14 01:31:49;;;;;;;18.42;11.15;;;10.70;94.20;;;;;;5022140;28;20049;-69
2023/05/14 01:34:18;;;;;;;17.88;10.35;;;10.60;93.70;;;;;;5023444;28;20476;-69
2023/05/14 01:36:44;;;;;;;19.38;10.18;;;10.60;93.70;;;;;;5024222;28;20095;-69
2023/05/14 01:39:12;;;;;;;19.05;10.50;;;10.50;93.80;;;;;;5019846;28;20385;-69
2023/05/14 01:41:38;;;;;;;16.58;10.23;;;10.40;93.90;;;;;;5021559;28;20133;-69
2023/05/14 01:44:04;;;;;;;17.23;10.82;;;10.40;94.40;;;;;;5024952;28;20190;-69
2023/05/14 01:46:31;;;;;;;19.70;11.75;;;10.50;94.30;;;;;;5029573;28;21099;-69
2023/05/14 01:48:57;;;;;;;19.30;11.82;;;10.50;94.40;;;;;;5003922;28;20038;-69
2023/05/14 01:51:22;;;;;;;20.20;12.07;;;10.40;94.30;;;;;;5030526;28;20554;-69
2023/05/14 01:53:48;;;;;;;19.52;11.43;;;10.40;94.50;;;;;;5017206;28;20045;-69
2023/05/14 01:56:13;;;;;;;18.67;11.25;;;10.40;94.60;;;;;;5023559;28;20037;-69
2023/05/14 01:58:39;;;;;;;21.45;11.57;;;10.40;94.70;;;;;;5030871;28;20072;-69
2023/05/14 02:01:05;;;;;;;18.67;10.95;;;10.40;94.60;;;;;;5008175;28;20052;-69
2023/05/14 02:03:30;;;;;;;17.55;11.35;;;10.30;94.70;;;;;;5020213;28;20041;-69
2023/05/14 02:05:56;;;;;;;20.42;11.02;;;10.30;94.80;;;;;;5027291;28;20367;-69
2023/05/14 02:08:21;;;;;;;23.98;11.20;;;10.30;94.90;;;;;;5012127;28;20096;-69
2023/05/14 02:10:47;;;;;;;19.20;11.70;;;10.30;94.90;;;;;;5002899;28;20036;-69
2023/05/14 02:13:13;;;;;;;24.40;12.55;;;10.20;94.80;;;;;;5023926;28;20041;-68
2023/05/14 02:15:39;;;;;;;18.73;11.63;;;10.20;95.00;;;;;;5004848;28;20112;-70
2023/05/14 02:18:04;;;;;;;17.65;11.85;;;10.20;95.20;;;;;;5019004;28;20156;-69
2023/05/14 02:20:30;;;;;;;19.83;11.95;;;10.30;95.20;;;;;;5022132;28;20056;-69
2023/05/14 02:22:56;;;;;;;22.33;12.15;;;10.20;95.40;;;;;;5021987;28;20477;-69
2023/05/14 02:25:21;;;;;;;20.90;12.38;;;10.20;95.40;;;;;;5017312;28;20503;-68
2023/05/14 02:27:47;;;;;;;16.80;10.68;;;10.20;95.50;;;;;;5024526;28;20041;-69
2023/05/14 02:30:12;;;;;;;16.38;11.23;;;10.20;95.60;;;;;;5024164;28;20037;-69
2023/05/14 02:32:38;;;;;;;19.00;11.60;;;10.10;95.60;;;;;;5002511;28;20052;-69
2023/05/14 02:35:04;;;;;;;19.20;11.93;;;10.10;95.60;;;;;;5002168;28;20034;-69
2023/05/14 02:37:29;;;;;;;19.92;12.73;;;10.00;95.60;;;;;;5016145;28;20132;-69
2023/05/14 02:39:55;;;;;;;22.95;12.13;;;10.00;95.80;;;;;;5020796;28;20050;-69
2023/05/14 02:42:20;;;;;;;20.67;11.45;;;10.00;95.80;;;;;;5024881;28;20053;-69
2023/05/14 02:44:46;;;;;;;27.60;13.18;;;9.90;95.80;;;;;;5019236;28;22711;-69
2023/05/14 02:47:12;;;;;;;23.17;13.60;;;9.90;96.30;;;;;;5022809;28;20045;-69
2023/05/14 02:49:37;;;;;;;21.88;12.57;;;10.00;96.90;;;;;;5019651;28;20116;-69
2023/05/14 02:52:03;;;;;;;21.58;11.65;;;9.90;96.70;;;;;;5013955;28;20053;-69
2023/05/14 02:54:28;;;;;;;20.90;12.20;;;9.90;96.60;;;;;;5011093;28;20041;-68
2023/05/14 02:56:54;;;;;;;17.60;11.00;;;10.00;96.70;;;;;;5019810;28;20037;-69
2023/05/14 02:59:20;;;;;;;23.40;11.63;;;10.10;96.60;;;;;;5019529;28;20040;-69
2023/05/14 03:01:45;;;;;;;21.05;11.70;;;10.10;96.60;;;;;;5020447;28;20041;-69
2023/05/14 03:04:11;;;;;;;19.02;11.15;;;10.10;96.50;;;;;;5020359;28;20059;-69
2023/05/14 03:06:36;;;;;;;22.13;11.98;;;9.90;96.60;;;;;;5004807;28;20493;-69
2023/05/14 03:09:02;;;;;;;23.40;12.27;;;9.90;96.60;;;;;;5018717;28;20042;-69
2023/05/14 03:11:27;;;;;;;20.60;11.60;;;10.00;96.80;;;;;;5007826;28;21350;-69
2023/05/14 03:13:53;;;;;;;25.55;12.73;;;10.00;96.90;;;;;;5034327;28;20042;-69
2023/05/14 03:16:18;;;;;;;20.65;11.05;;;9.90;96.80;;;;;;5004351;28;20529;-69
2023/05/14 03:18:44;;;;;;;19.48;12.38;;;9.90;96.90;;;;;;5008510;28;20046;-69
2023/05/14 03:21:10;;;;;;;19.65;10.70;;;9.80;97.10;;;;;;5024454;28;20037;-69
2023/05/14 03:23:35;;;;;;;17.73;11.20;;;9.80;97.40;;;;;;5008839;28;20068;-69
2023/05/14 03:26:01;;;;;;;22.98;11.48;;;9.80;97.30;;;;;;5020315;28;20075;-69
2023/05/14 03:28:26;;;;;;;15.77;10.57;;;9.70;97.30;;;;;;5020845;28;20526;-68
2023/05/14 03:30:52;;;;;;;20.02;11.60;;;9.80;97.60;;;;;;5002393;28;20036;-69
2023/05/14 03:33:18;;;;;;;18.88;11.23;;;9.70;97.60;;;;;;5021548;28;20134;-69
2023/05/14 03:35:43;;;;;;;19.17;10.45;;;9.70;97.60;;;;;;5014840;28;20468;-69
2023/05/14 03:38:09;;;;;;;19.83;11.50;;;9.60;97.60;;;;;;5019073;28;20501;-69
2023/05/14 03:40:35;;;;;;;18.92;10.55;;;9.60;97.60;;;;;;5015410;28;20053;-68
2023/05/14 03:43:00;;;;;;;17.10;9.82;;;9.60;97.80;;;;;;5017323;28;20085;-68
2023/05/14 03:45:27;;;;;;;19.10;10.73;;;9.60;97.90;;;;;;4998854;28;20463;-68
2023/05/14 03:47:53;;;;;;;20.42;10.77;;;9.50;98.00;;;;;;5026194;28;20049;-69
2023/05/14 03:50:18;;;;;;;18.00;9.98;;;9.50;98.00;;;;;;5016466;28;20041;-69
2023/05/14 03:52:44;;;;;;;18.52;9.50;;;9.50;98.40;;;;;;5019970;28;20365;-69
2023/05/14 03:55:10;;;;;;;20.13;10.15;;;9.50;98.30;;;;;;5017332;28;20033;-68
2023/05/14 03:57:36;;;;;;;18.73;10.80;;;9.50;98.50;;;;;;5037359;28;20040;-69
2023/05/14 04:00:06;;;;;;;21.45;11.02;;;9.50;98.70;;;;;;5025236;28;20052;-68
2023/05/14 04:02:31;;;;;;;17.33;10.93;;;9.50;99.00;;;;;;5022552;28;20037;-69
2023/05/14 04:04:57;;;;;;;20.23;10.95;;;9.50;98.90;;;;;;5008644;28;20107;-69
2023/05/14 04:07:22;;;;;;;26.42;11.30;;;9.50;98.80;;;;;;5015850;28;20077;-69
2023/05/14 04:09:48;;;;;;;21.58;10.40;;;9.50;98.90;;;;;;5017847;28;20038;-69
2023/05/14 04:12:13;;;;;;;21.08;11.32;;;9.50;99.00;;;;;;5014643;28;20036;-69
2023/05/14 04:14:39;;;;;;;26.67;11.10;;;9.60;99.20;;;;;;5027586;28;20068;-69
2023/05/14 04:17:04;;;;;;;17.90;10.13;;;9.60;99.20;;;;;;5017789;28;20042;-69
2023/05/14 04:19:30;;;;;;;18.80;10.88;;;9.60;99.30;;;;;;5012968;28;20129;-69
2023/05/14 04:21:55;;;;;;;20.92;10.63;;;9.60;99.30;;;;;;5002847;28;20077;-69
2023/05/14 04:24:21;;;;;;;21.13;10.63;;;9.70;99.30;;;;;;5014400;28;20038;-69
2023/05/14 04:26:47;;;;;;;18.33;10.38;;;9.80;99.90;;;;;;5009467;28;20095;-69
2023/05/14 04:29:12;;;;;;;20.17;10.52;;;9.80;99.80;;;;;;5020008;28;20041;-68
2023/05/14 04:31:38;;;;;;;22.10;10.85;;;9.80;99.80;;;;;;5019759;28;20091;-68
2023/05/14 04:34:04;;;;;;;18.05;10.90;;;9.90;99.90;;;;;;5016849;28;20084;-69
2023/05/14 04:36:30;;;;;;;22.50;11.18;;;10.00;99.90;;;;;;5019336;28;20062;-68
2023/05/14 04:38:55;;;;;;;18.98;11.00;;;10.10;99.90;;;;;;5019434;28;20064;-68
2023/05/14 04:41:21;;;;;;;19.05;11.20;;;10.10;99.90;;;;;;5018598;28;20409;-68
2023/05/14 04:43:49;;;;;;;20.15;11.98;;;10.10;99.90;;;;;;5025444;28;20049;-68
2023/05/14 04:46:14;;;;;;;23.55;11.05;;;10.20;99.90;;;;;;5025035;28;20044;-68
2023/05/14 04:48:40;;;;;;;22.15;11.48;;;10.20;99.90;;;;;;5020195;28;20045;-68
2023/05/14 04:51:07;;;;;;;22.55;12.23;;;10.30;99.90;;;;;;5020641;28;20058;-68
2023/05/14 04:53:33;;;;;;;22.17;12.82;;;10.40;99.90;;;;;;5015884;28;20870;-68
2023/05/14 04:55:58;;;;;;;20.65;11.57;;;10.50;99.90;;;;;;5022476;28;20100;-69
2023/05/14 04:58:26;;;;;;;22.48;12.50;;;10.60;99.90;;;;;;5024559;28;20056;-68
2023/05/14 05:00:52;;;;;;;21.38;12.30;;;10.80;99.90;;;;;;5020981;28;20041;-68
2023/05/14 05:03:17;;;;;;;18.42;11.45;;;10.90;99.90;;;;;;5017017;28;20375;-68
2023/05/14 05:05:43;;;;;;;23.13;12.15;;;11.10;99.90;;;;;;5020463;28;20048;-68
2023/05/14 05:08:10;;;;;;;21.25;11.45;;;11.20;99.90;;;;;;5023449;28;20037;-68
2023/05/14 05:10:35;;;;;;;21.27;11.07;;;11.30;99.90;;;;;;5007658;28;20404;-68
2023/05/14 05:13:01;;;;;;;21.10;11.90;;;11.40;99.90;;;;;;5009264;28;20041;-68
2023/05/14 05:15:26;;;;;;;20.55;11.23;;;11.50;99.90;;;;;;5021512;28;20033;-68
2023/05/14 05:17:52;;;;;;;18.73;11.15;;;11.60;99.90;;;;;;5023313;28;20381;-68
2023/05/14 05:20:17;;;;;;;19.08;11.30;;;11.70;99.90;;;;;;5022060;28;20400;-68
2023/05/14 05:22:43;;;;;;;21.60;11.77;;;11.80;99.90;;;;;;5024051;28;20033;-68
2023/05/14 05:25:10;;;;;;;22.63;11.75;;;12.00;99.90;;;;;;5021634;28;20049;-68
2023/05/14 05:27:36;;;;;;;20.95;11.45;;;12.10;99.90;;;;;;5038836;28;20095;-69
2023/05/14 05:30:02;;;;;;;20.20;11.82;;;12.30;99.90;;;;;;5024024;28;20041;-68
2023/05/14 05:32:28;;;;;;;23.67;12.10;;;12.40;99.90;;;;;;5014657;28;20375;-68
2023/05/14 05:34:54;;;;;;;23.35;11.05;;;12.40;99.90;;;;;;5021650;28;20087;-68
2023/05/14 05:37:19;;;;;;;24.70;11.45;;;12.50;99.90;;;;;;5019574;28;20083;-69
2023/05/14 05:39:47;;;;;;;19.95;11.30;;;12.50;99.90;;;;;;5006451;28;20033;-68
2023/05/14 05:42:13;;;;;;;21.63;11.05;;;12.60;99.90;;;;;;5020752;28;20119;-68
2023/05/14 05:44:38;;;;;;;20.80;11.00;;;12.70;99.90;;;;;;5029013;28;20053;-69
2023/05/14 05:47:04;;;;;;;21.70;11.02;;;12.80;99.90;;;;;;4981152;28;20052;-68
2023/05/14 05:49:30;;;;;;;17.15;10.55;;;12.80;99.90;;;;;;5018429;28;20485;-69
2023/05/14 05:51:55;;;;;;;19.88;10.38;;;12.80;99.90;;;;;;5027975;28;20099;-69
2023/05/14 05:54:23;;;;;;;18.67;10.35;;;13.00;99.90;;;;;;5019629;28;20410;-68
2023/05/14 05:56:49;;;;;;;22.30;11.60;;;13.10;99.90;;;;;;5012941;28;20535;-69
2023/05/14 05:59:15;;;;;;;19.98;11.05;;;13.20;99.90;;;;;;5011335;28;20136;-68
2023/05/14 06:01:42;;;;;;;21.30;10.00;;;13.30;99.90;;;;;;5010549;28;20033;-68
2023/05/14 06:04:08;;;;;;;22.23;10.90;;;13.40;99.90;;;;;;5012907;28;20053;-68
2023/05/14 06:06:34;;;;;;;23.60;10.15;;;13.50;99.90;;;;;;5014134;28;20034;-68
2023/05/14 06:09:00;;;;;;;19.58;9.55;;;13.50;99.90;;;;;;5016308;28;20450;-68
2023/05/14 06:11:26;;;;;;;19.83;10.13;;;13.70;99.90;;;;;;5013238;28;20038;-69
2023/05/14 06:13:52;;;;;;;24.30;11.70;;;13.80;99.90;;;;;;5017371;28;20056;-68
2023/05/14 06:16:18;;;;;;;19.10;10.38;;;13.80;99.90;;;;;;5019841;28;20115;-68
2023/05/14 06:18:43;;;;;;;14.60;9.18;;;14.00;99.90;;;;;;5025570;28;20562;-69
2023/05/14 06:21:09;;;;;;;14.48;9.05;;;14.20;99.90;;;;;;5021943;28;20539;-69
2023/05/14 06:23:34;;;;;;;21.58;9.68;;;14.40;99.40;;;;;;5021458;28;20118;-69
2023/05/14 06:26:00;;;;;;;14.77;8.82;;;14.30;99.50;;;;;;5022500;28;20351;-69
2023/05/14 06:28:25;;;;;;;16.08;8.57;;;14.50;99.00;;;;;;5021214;28;20034;-68
2023/05/14 06:30:52;;;;;;;20.73;10.20;;;14.60;98.60;;;;;;5021567;28;20033;-69
2023/05/14 06:33:20;;;;;;;18.73;9.90;;;14.60;98.40;;;;;;5035351;28;20042;-68
2023/05/14 06:35:46;;;;;;;18.42;9.32;;;14.60;98.10;;;;;;5020079;28;20046;-68
2023/05/14 06:38:11;;;;;;;15.50;9.57;;;14.70;97.80;;;;;;5029566;28;20057;-69
2023/05/14 06:40:37;;;;;;;17.63;9.88;;;14.80;97.60;;;;;;5012056;28;20065;-69
2023/05/14 06:43:05;;;;;;;19.77;10.48;;;14.80;97.20;;;;;;5016423;28;20049;-69
2023/05/14 06:45:30;;;;;;;18.90;10.25;;;15.00;96.70;;;;;;5011645;28;20477;-69
2023/05/14 06:47:56;;;;;;;15.77;9.15;;;15.10;96.60;;;;;;4998256;28;20056;-69
2023/05/14 06:50:22;;;;;;;16.50;9.13;;;15.30;96.40;;;;;;4998736;28;20045;-69
2023/05/14 06:52:47;;;;;;;16.80;9.32;;;15.50;96.00;;;;;;5009670;28;20038;-69
2023/05/14 06:55:13;;;;;;;16.83;9.43;;;15.70;95.50;;;;;;5045360;28;20026;-69
2023/05/14 06:57:39;;;;;;;17.88;9.00;;;16.00;95.10;;;;;;5019617;28;20037;-69
2023/05/14 07:00:05;;;;;;;17.42;8.73;;;16.10;95.00;;;;;;5021164;28;20631;-69
2023/05/14 07:02:31;;;;;;;12.75;9.10;;;16.40;94.30;;;;;;5016610;28;20037;-68
2023/05/14 07:04:56;;;;;;;16.30;8.00;;;16.60;93.70;;;;;;5010612;28;20056;-68
2023/05/14 07:07:22;;;;;;;16.33;7.97;;;16.80;93.00;;;;;;5016116;28;20572;-68
2023/05/14 07:09:47;;;;;;;15.68;8.18;;;17.00;92.30;;;;;;5017633;28;20362;-68
2023/05/14 07:12:13;;;;;;;12.85;8.50;;;17.30;91.50;;;;;;5024660;28;20607;-68
2023/05/14 07:14:39;;;;;;;18.85;8.95;;;17.30;91.00;;;;;;5014654;28;20425;-68
2023/05/14 07:17:04;;;;;;;20.13;8.52;;;17.30;90.50;;;;;;5013012;28;20048;-68
2023/05/14 07:19:30;;;;;;;16.17;7.97;;;17.20;90.30;;;;;;5016192;28;20347;-68
2023/05/14 07:21:56;;;;;;;15.57;8.05;;;17.30;89.60;;;;;;5014618;28;20046;-68
2023/05/14 07:24:23;;;;;;;12.57;8.10;;;17.40;88.50;;;;;;5006997;28;20038;-68
2023/05/14 07:26:48;;;;;;;12.65;8.07;;;17.40;87.60;;;;;;5008840;28;20045;-68
2023/05/14 07:29:14;;;;;;;17.48;8.15;;;17.30;87.70;;;;;;5014452;28;20069;-68
2023/05/14 07:31:39;;;;;;;14.50;7.22;;;17.30;86.40;;;;;;5020609;28;20117;-68
2023/05/14 07:34:06;;;;;;;14.82;8.20;;;17.50;85.70;;;;;;5010771;28;20037;-69
2023/05/14 07:36:32;;;;;;;17.13;8.25;;;17.80;85.00;;;;;;5009460;28;20036;-68
2023/05/14 07:38:57;;;;;;;12.50;7.15;;;18.00;84.30;;;;;;5010748;28;20463;-69
2023/05/14 07:41:23;;;;;;;17.92;8.15;;;18.30;83.80;;;;;;5009317;28;20060;-69
2023/05/14 07:43:49;;;;;;;15.07;7.93;;;18.60;83.30;;;;;;5010108;28;20048;-69
2023/05/14 07:46:15;;;;;;;14.27;8.23;;;18.40;82.90;;;;;;5016206;28;20393;-69
2023/05/14 07:48:40;;;;;;;14.05;7.93;;;18.50;82.70;;;;;;5007818;28;20409;-68
2023/05/14 07:51:06;;;;;;;14.43;8.07;;;18.70;82.00;;;;;;5016622;28;20048;-69
2023/05/14 07:53:32;;;;;;;18.30;8.20;;;18.90;81.40;;;;;;5011302;28;20038;-69
2023/05/14 07:55:58;;;;;;;13.07;7.32;;;18.90;80.50;;;;;;5010075;28;20041;-69
2023/05/14 07:58:25;;;;;;;12.70;7.65;;;18.90;79.60;;;;;;5011088;28;20048;-69
2023/05/14 08:00:51;;;;;;;12.25;6.28;;;18.90;79.20;;;;;;5011032;28;20630;-68
2023/05/14 08:03:16;;;;;;;12.38;6.40;;;19.20;78.20;;;;;;5027686;28;20041;-69
2023/05/14 08:05:42;;;;;;;12.27;6.45;;;19.30;77.10;;;;;;5015908;28;20042;-69
2023/05/14 08:08:07;;;;;;;12.85;7.35;;;19.40;76.40;;;;;;5015932;28;20049;-69
2023/05/14 08:10:33;;;;;;;13.65;6.18;;;19.40;75.40;;;;;;4993624;28;20033;-68
2023/05/14 08:12:58;;;;;;;13.10;6.50;;;19.40;74.90;;;;;;5015879;28;20443;-69
2023/05/14 08:15:24;;;;;;;11.73;6.30;;;19.50;73.90;;;;;;5018054;28;20532;-68
2023/05/14 08:17:49;;;;;;;12.73;7.18;;;19.60;73.20;;;;;;5010066;28;20382;-69
2023/05/14 08:20:15;;;;;;;17.23;8.27;;;19.80;72.90;;;;;;5008116;28;20045;-69
2023/05/14 08:22:41;;;;;;;10.27;6.10;;;19.80;71.40;;;;;;5012060;28;20040;-70
2023/05/14 08:25:06;;;;;;;13.68;7.75;;;20.00;71.10;;;;;;4993665;28;20041;-69
2023/05/14 08:27:32;;;;;;;15.07;8.10;;;20.30;70.80;;;;;;5017147;28;20034;-70
2023/05/14 08:29:58;;;;;;;14.63;7.97;;;20.40;69.70;;;;;;5009399;28;20054;-70
2023/05/14 08:32:23;;;;;;;11.70;7.18;;;20.60;69.00;;;;;;5010777;28;20466;-69
2023/05/14 08:34:49;;;;;;;10.65;7.20;;;21.00;68.50;;;;;;5012013;28;20049;-69
2023/05/14 08:37:15;;;;;;;16.70;8.98;;;21.20;67.80;;;;;;5008629;28;20026;-70
2023/05/14 08:39:40;;;;;;;15.75;6.90;;;21.40;67.10;;;;;;5008761;28;20061;-70
2023/05/14 08:42:09;;;;;;;14.27;8.82;;;21.50;67.00;;;;;;5017416;28;20402;-70
2023/05/14 08:44:46;;;;;;;11.10;8.23;;;21.60;66.20;;;;;;5026735;28;20134;-69
2023/05/14 08:47:14;;;;;;;13.20;8.80;;;21.80;65.10;;;;;;5029222;28;20456;-71
2023/05/14 08:49:48;;;;;;;11.73;7.95;;;22.00;64.20;;;;;;5014766;28;20042;-69
2023/05/14 08:52:15;;;;;;;12.02;8.65;;;21.70;63.80;;;;;;5012474;28;20042;-71
2023/05/14 08:54:40;;;;;;;13.75;9.05;;;21.60;63.30;;;;;;5008368;28;20052;-70
2023/05/14 08:57:08;;;;;;;15.98;8.38;;;21.40;62.70;;;;;;5010978;28;20446;-68
2023/05/14 08:59:34;;;;;;;11.30;7.25;;;21.30;60.70;;;;;;5008259;28;20512;-71
2023/05/14 09:02:04;;;;;;;11.63;9.18;;;21.20;61.40;;;;;;4997140;28;20050;-69
2023/05/14 09:04:31;;;;;;;19.92;9.23;;;20.90;60.50;;;;;;4996825;28;20202;-70
2023/05/14 09:07:00;;;;;;;13.55;8.57;;;20.70;61.30;;;;;;5018007;28;20037;-69
2023/05/14 09:09:26;;;;;;;15.68;9.57;;;20.80;60.90;;;;;;5010191;28;20061;-70
2023/05/14 09:11:52;;;;;;;15.10;9.27;;;20.50;61.60;;;;;;5010446;28;20164;-69
2023/05/14 09:14:19;;;;;;;17.23;9.65;;;20.60;61.90;;;;;;5023870;28;20038;-70
2023/05/14 09:16:47;;;;;;;12.73;8.73;;;20.80;62.00;;;;;;5015244;28;20037;-70
2023/05/14 09:19:14;;;;;;;12.13;8.30;;;21.10;61.90;;;;;;5024888;28;20048;-70
2023/05/14 09:21:40;;;;;;;15.00;8.88;;;21.30;61.40;;;;;;5009928;28;20094;-70
2023/05/14 09:24:06;;;;;;;12.63;8.50;;;21.40;60.20;;;;;;5018297;28;20041;-70
2023/05/14 09:26:33;;;;;;;15.82;9.23;;;21.40;58.90;;;;;;5030589;28;20038;-70
2023/05/14 09:29:03;;;;;;;10.38;7.80;;;21.50;57.90;;;;;;5029466;28;20049;-70
2023/05/14 09:31:30;;;;;;;9.47;7.63;;;21.80;57.50;;;;;;5030854;28;20088;-69
2023/05/14 09:33:56;;;;;;;15.77;7.55;;;22.40;56.30;;;;;;5014803;28;20168;-70
2023/05/14 09:36:23;;;;;;;12.82;7.65;;;23.20;55.40;;;;;;5026426;28;20116;-70
2023/05/14 09:38:49;;;;;;;11.05;8.52;;;23.90;54.00;;;;;;5029242;28;20044;-70
2023/05/14 09:41:15;;;;;;;14.50;9.05;;;24.20;52.40;;;;;;5032453;28;20053;-70
2023/05/14 09:43:41;;;;;;;11.73;7.50;;;24.30;50.80;;;;;;5030030;28;20544;-69
2023/05/14 09:46:06;;;;;;;9.13;6.47;;;24.20;50.40;;;;;;5016812;28;20061;-70
2023/05/14 09:48:32;;;;;;;11.65;6.68;;;24.00;52.30;;;;;;5018238;28;20077;-70
2023/05/14 09:50:57;;;;;;;9.35;8.38;;;24.00;51.80;;;;;;5032000;28;20038;-70
2023/05/14 09:53:23;;;;;;;9.27;6.55;;;23.80;50.30;;;;;;5009514;28;20164;-70
2023/05/14 09:55:49;;;;;;;10.43;7.95;;;23.80;50.50;;;;;;5020505;28;20037;-70
2023/05/14 09:58:15;;;;;;;14.57;7.53;;;23.60;50.80;;;;;;5026631;28;20492;-70
2023/05/14 10:00:46;;;;;;;12.70;8.15;;;23.50;50.50;;;;;;5001479;28;20045;-69
2023/05/14 10:03:14;;;;;;;9.27;7.40;;;23.60;48.90;;;;;;5001782;28;20061;-70
2023/05/14 10:05:41;;;;;;;10.13;6.32;;;24.00;48.30;;;;;;5014348;28;20037;-69
2023/05/14 10:08:20;;;;;;;10.85;7.35;;;24.80;46.60;;;;;;4999918;28;20551;-69
2023/05/14 10:10:49;;;;;;;8.03;5.47;;;25.70;43.70;;;;;;5014969;28;20057;-69
2023/05/14 10:13:18;;;;;;;6.65;4.95;;;26.60;41.90;;;;;;5026189;28;20045;-69
2023/05/14 10:16:06;;;;;;;9.00;4.97;;;27.00;40.20;;;;;;5030773;28;20042;-70
2023/05/14 10:18:40;;;;;;;7.25;5.00;;;27.40;35.50;;;;;;5015831;28;20041;-69
2023/05/14 10:21:06;;;;;;;8.10;4.22;;;27.60;36.40;;;;;;5014538;28;20029;-69
2023/05/14 10:23:36;;;;;;;6.32;4.43;;;28.40;35.80;;;;;;5016096;28;20029;-69
2023/05/14 10:26:03;;;;;;;7.28;4.57;;;28.70;34.80;;;;;;5019722;28;20080;-71
2023/05/14 10:28:29;;;;;;;7.65;4.50;;;29.00;33.70;;;;;;5019905;28;20072;-70
2023/05/14 10:30:55;;;;;;;7.72;4.88;;;28.70;31.70;;;;;;5020575;28;20045;-68
2023/05/14 10:33:21;;;;;;;5.78;4.80;;;28.20;31.90;;;;;;5015053;28;20045;-70
2023/05/14 10:35:54;;;;;;;7.95;4.45;;;27.60;32.50;;;;;;5032166;28;20069;-69
2023/05/14 10:38:35;;;;;;;7.95;5.35;;;26.80;33.20;;;;;;5024543;28;20429;-69
2023/05/14 10:41:06;;;;;;;6.63;3.92;;;26.40;32.00;;;;;;5021465;28;20371;-69
2023/05/14 10:43:41;;;;;;;6.18;4.88;;;25.90;34.10;;;;;;5021276;28;20068;-69
2023/05/14 10:46:09;;;;;;;4.68;4.28;;;25.50;35.50;;;;;;5015958;28;20079;-70
2023/05/14 10:48:36;;;;;;;7.25;4.72;;;25.50;36.60;;;;;;5013383;28;20052;-70
2023/05/14 10:51:02;;;;;;;5.97;5.38;;;25.60;36.60;;;;;;5014376;28;20119;-70
2023/05/14 10:53:38;;;;;;;5.65;4.28;;;25.20;36.40;;;;;;5009121;28;20080;-69
2023/05/14 10:56:09;;;;;;;7.95;5.00;;;24.80;37.10;;;;;;4994707;28;20637;-68
2023/05/14 10:58:42;;;;;;;7.03;4.20;;;24.60;36.10;;;;;;5018623;28;20079;-69
2023/05/14 11:01:10;;;;;;;7.55;3.83;;;24.30;38.20;;;;;;5010178;28;20038;-68
2023/05/14 11:03:44;;;;;;;7.15;4.43;;;24.30;39.20;;;;;;5010637;28;20033;-68
2023/05/14 11:06:11;;;;;;;8.07;3.90;;;24.30;38.20;;;;;;5025406;28;20377;-68
2023/05/14 11:08:38;;;;;;;7.53;4.45;;;24.30;37.80;;;;;;5014080;28;20042;-68
2023/05/14 11:11:08;;;;;;;5.43;4.70;;;24.00;37.90;;;;;;5024318;28;20048;-68
2023/05/14 11:13:33;;;;;;;7.40;5.13;;;24.00;37.50;;;;;;5024066;28;20084;-70
2023/05/14 11:16:01;;;;;;;7.45;4.75;;;24.00;37.00;;;;;;5021655;28;20112;-70
2023/05/14 11:18:32;;;;;;;7.18;3.80;;;23.90;36.10;;;;;;5007602;28;20123;-68
2023/05/14 11:21:01;;;;;;;5.30;4.03;;;24.10;36.00;;;;;;5028430;28;20034;-68
2023/05/14 11:23:27;;;;;;;7.17;4.50;;;24.20;34.90;;;;;;5029725;28;20044;-69
2023/05/14 11:25:54;;;;;;;6.40;4.30;;;24.20;35.50;;;;;;5014071;28;20359;-69
2023/05/14 11:28:25;;;;;;;7.22;4.50;;;24.00;36.10;;;;;;5026072;28;20044;-70
2023/05/14 11:30:52;;;;;;;5.40;3.95;;;24.20;36.00;;;;;;5022683;28;20553;-69
2023/05/14 11:33:18;;;;;;;6.63;4.07;;;24.20;37.00;;;;;;5010207;28;20041;-68
2023/05/14 11:35:45;;;;;;;7.32;4.22;;;24.30;37.40;;;;;;5028994;28;20049;-69
2023/05/14 11:38:15;;;;;;;4.97;4.28;;;24.40;37.10;;;;;;5023342;28;20036;-68
2023/05/14 11:40:41;;;;;;;6.20;3.85;;;24.40;36.10;;;;;;5028904;28;20091;-68
2023/05/14 11:43:07;;;;;;;5.53;3.88;;;24.40;35.60;;;;;;5027458;28;20053;-69
2023/05/14 11:45:32;;;;;;;7.10;4.32;;;24.50;35.50;;;;;;5015216;28;20030;-69
2023/05/14 11:47:58;;;;;;;7.38;4.60;;;24.30;35.40;;;;;;5032515;28;20037;-69
2023/05/14 11:50:24;;;;;;;5.50;4.03;;;24.40;36.20;;;;;;5027901;28;20091;-69
2023/05/14 11:52:49;;;;;;;5.43;4.10;;;24.40;37.00;;;;;;5028709;28;20036;-69
2023/05/14 11:55:16;;;;;;;6.32;3.90;;;24.50;36.60;;;;;;5028809;28;20412;-68
2023/05/14 11:57:42;;;;;;;5.95;3.60;;;24.60;36.30;;;;;;5029016;28;20037;-68
2023/05/14 12:00:12;;;;;;;8.90;4.68;;;24.70;35.10;;;;;;5029264;28;20096;-69
2023/05/14 12:02:38;;;;;;;5.55;3.80;;;24.60;33.50;;;;;;5026609;28;20057;-68
2023/05/14 12:05:06;;;;;;;6.78;3.47;;;24.70;34.20;;;;;;5019767;28;20041;-69
2023/05/14 12:07:31;;;;;;;7.65;4.30;;;25.00;33.90;;;;;;5026221;28;20430;-68
2023/05/14 12:10:02;;;;;;;6.60;3.78;;;25.00;32.90;;;;;;5029969;28;20049;-69
2023/05/14 12:12:34;;;;;;;4.20;3.25;;;25.00;32.20;;;;;;5031180;28;20053;-69
2023/05/14 12:15:00;;;;;;;4.47;3.63;;;25.00;31.20;;;;;;5015795;28;20073;-68
2023/05/14 12:17:25;;;;;;;9.23;4.07;;;25.00;32.80;;;;;;5017841;28;20422;-69
2023/05/14 12:19:51;;;;;;;4.40;3.60;;;25.30;32.50;;;;;;5025455;28;20508;-68
2023/05/14 12:22:21;;;;;;;3.83;3.20;;;25.40;32.50;;;;;;5030489;28;20044;-69
2023/05/14 12:24:58;;;;;;;5.93;3.40;;;25.50;33.20;;;;;;5028304;28;20551;-69
2023/05/14 12:27:25;;;;;;;5.03;3.92;;;25.80;31.70;;;;;;5040629;28;20033;-69
2023/05/14 12:30:02;;;;;;;7.38;4.18;;;25.70;31.90;;;;;;5034388;28;20041;-68
2023/05/14 12:32:30;;;;;;;7.30;3.90;;;25.70;30.90;;;;;;5008895;28;20045;-69